Main page
METAR-TAF:

METAR-TAF

Airports :

Monroe Municipal Airport

Monroe, Wisconsin, United States

latitude: 42-36-54N, longitude: 089-35-27W, elevation: 1086 ft

Current weather observation

The report was made 21 minutes ago, at 03:15 UTC
Wind 10 mph from the South
Temperature 72°F
Humidity 73%
Pressure 29.99 in. Hg
Visibility: 10 miles
Clear sky

METAR: KEFT 260315Z AUTO 19009KT 10SM CLR 22/17 A2999 RMK AO2 T02170170

Time: 22:36 (03:36 UTC)


TAF: missing

Weather observations and forecasts of more than 4000 airports (METAR and TAF reports).

The available stations are represented by yellow and red dots on the map.

Hover mouse over dot to see the name of the station.

Then click to see weather observations and forecasts.

To change the map : click on the green buttons with a black cross to zoom in, on the green button with a dash to zoom out, or on the green arrows for adjacent maps.


METAR-TAF: